createdAt,value
2023-01-21T00:01:07.773Z,3.40
2023-01-21T00:03:37.548Z,3.40
2023-01-21T00:06:04.451Z,3.40
2023-01-21T00:08:31.172Z,3.40
2023-01-21T00:10:57.896Z,3.40
2023-01-21T00:13:24.629Z,3.40
2023-01-21T00:15:57.246Z,3.40
2023-01-21T00:18:23.969Z,3.40
2023-01-21T00:20:50.656Z,3.40
2023-01-21T00:23:17.332Z,3.40
2023-01-21T00:25:44.084Z,3.40
2023-01-21T00:28:12.183Z,3.40
2023-01-21T00:30:39.526Z,3.40
2023-01-21T00:33:06.199Z,3.40
2023-01-21T00:35:32.905Z,3.30
2023-01-21T00:37:59.638Z,3.40
2023-01-21T00:40:26.875Z,3.30
2023-01-21T00:42:53.563Z,3.40
2023-01-21T00:45:20.291Z,3.30
2023-01-21T00:47:47.344Z,3.30
2023-01-21T00:50:14.231Z,3.50
2023-01-21T00:52:40.979Z,3.40
2023-01-21T00:55:07.977Z,3.30
2023-01-21T00:57:34.661Z,3.40
2023-01-21T01:00:01.327Z,3.40
2023-01-21T01:02:28.121Z,3.40
2023-01-21T01:04:54.809Z,3.40
2023-01-21T01:07:21.550Z,3.50
2023-01-21T01:09:48.237Z,3.40
2023-01-21T01:12:14.951Z,3.40
2023-01-21T01:14:41.650Z,3.40
2023-01-21T01:17:08.752Z,3.40
2023-01-21T01:19:35.445Z,3.40
2023-01-21T01:22:02.128Z,3.40
2023-01-21T01:24:28.885Z,3.50
2023-01-21T01:26:55.554Z,3.40
2023-01-21T01:29:22.261Z,3.40
2023-01-21T01:31:48.985Z,3.40
2023-01-21T01:34:15.754Z,3.40
2023-01-21T01:36:42.418Z,3.40
2023-01-21T01:39:09.162Z,3.40
2023-01-21T01:41:36.083Z,3.40
2023-01-21T01:44:07.033Z,3.40
2023-01-21T01:46:35.085Z,3.40
2023-01-21T01:49:17.592Z,3.30
2023-01-21T01:51:51.620Z,3.30
2023-01-21T01:54:20.209Z,3.30
2023-01-21T01:56:47.773Z,3.30
2023-01-21T01:59:14.465Z,3.20
2023-01-21T02:01:41.221Z,3.30
2023-01-21T02:04:09.881Z,3.30
2023-01-21T02:06:36.600Z,3.30
2023-01-21T02:09:03.940Z,3.20
2023-01-21T02:11:30.607Z,3.20
2023-01-21T02:13:58.280Z,3.10
2023-01-21T02:17:00.328Z,3.10
2023-01-21T02:19:45.859Z,3.10
2023-01-21T02:22:18.527Z,3.00
2023-01-21T02:25:07.023Z,3.00
2023-01-21T02:27:48.600Z,3.00
2023-01-21T02:30:30.578Z,3.00
2023-01-21T02:33:24.743Z,2.90
2023-01-21T02:36:29.137Z,2.80
2023-01-21T02:39:14.681Z,2.80
2023-01-21T02:42:11.214Z,2.70
2023-01-21T02:44:54.643Z,2.70
2023-01-21T02:47:38.813Z,2.60
2023-01-21T02:50:07.279Z,2.50
2023-01-21T02:52:34.057Z,2.50
2023-01-21T02:55:01.576Z,2.40
2023-01-21T02:57:49.099Z,2.40
2023-01-21T03:00:29.259Z,2.30
2023-01-21T03:03:14.634Z,2.20
2023-01-21T03:05:48.549Z,2.10
2023-01-21T03:08:20.048Z,2.10
2023-01-21T03:10:52.508Z,2.00
2023-01-21T03:13:45.536Z,1.90
2023-01-21T03:16:30.784Z,1.80
2023-01-21T03:18:57.753Z,1.80
2023-01-21T03:21:26.580Z,1.70
2023-01-21T03:23:53.412Z,1.70
2023-01-21T03:26:26.676Z,1.60
2023-01-21T03:28:54.402Z,1.60
2023-01-21T03:31:23.793Z,1.50
2023-01-21T03:33:52.137Z,1.50
2023-01-21T03:36:26.900Z,1.50
2023-01-21T03:38:53.714Z,1.40
2023-01-21T03:41:22.743Z,1.40
2023-01-21T03:43:49.491Z,1.30
2023-01-21T03:46:21.814Z,1.20
2023-01-21T03:49:03.748Z,1.20
2023-01-21T03:51:42.420Z,1.10
2023-01-21T03:54:09.151Z,1.10
2023-01-21T03:56:35.832Z,1.10
2023-01-21T03:59:02.547Z,1.10
2023-01-21T04:01:29.191Z,1.10
2023-01-21T04:03:55.879Z,1.10
2023-01-21T04:06:22.869Z,1.10
2023-01-21T04:08:49.720Z,1.10
2023-01-21T04:11:16.562Z,1.00
2023-01-21T04:13:43.350Z,1.00
2023-01-21T04:16:10.115Z,1.00
2023-01-21T04:18:36.854Z,0.90
2023-01-21T04:21:03.766Z,0.90
2023-01-21T04:23:30.502Z,0.80
2023-01-21T04:25:57.185Z,0.80
2023-01-21T04:28:23.995Z,0.80
2023-01-21T04:30:50.757Z,0.70
2023-01-21T04:33:17.520Z,0.70
2023-01-21T04:35:44.217Z,0.60
2023-01-21T04:38:11.596Z,0.60
2023-01-21T04:40:38.420Z,0.50
2023-01-21T04:43:05.222Z,0.50
2023-01-21T04:45:31.911Z,0.50
2023-01-21T04:47:58.628Z,0.50
2023-01-21T04:50:25.304Z,0.40
2023-01-21T04:52:52.075Z,0.40
2023-01-21T04:55:18.779Z,0.40
2023-01-21T04:57:45.424Z,0.40
2023-01-21T05:00:12.550Z,0.40
2023-01-21T05:02:39.262Z,0.30
2023-01-21T05:05:06.503Z,0.30
2023-01-21T05:07:33.175Z,0.30
2023-01-21T05:09:59.845Z,0.30
2023-01-21T05:12:27.404Z,0.20
2023-01-21T05:14:54.729Z,0.20
2023-01-21T05:17:21.555Z,0.10
2023-01-21T05:19:48.283Z,0.10
2023-01-21T05:22:14.973Z,0.10
2023-01-21T05:24:41.688Z,0.10
2023-01-21T05:27:08.548Z,0.00
2023-01-21T05:29:35.231Z,0.10
2023-01-21T05:32:01.988Z,0.00
2023-01-21T05:34:28.726Z,0.00
2023-01-21T05:36:55.427Z,-0.10
2023-01-21T05:39:22.125Z,-0.20
2023-01-21T05:41:48.874Z,-0.10
2023-01-21T05:44:17.564Z,-0.10
2023-01-21T05:46:44.448Z,-0.10
2023-01-21T05:49:11.180Z,-0.10
2023-01-21T05:51:37.906Z,-0.10
2023-01-21T05:54:04.734Z,-0.10
2023-01-21T05:56:31.385Z,-0.20
2023-01-21T05:58:58.030Z,-0.20
2023-01-21T06:01:24.844Z,-0.20
2023-01-21T06:03:51.816Z,-0.20
2023-01-21T06:06:18.559Z,-0.20
2023-01-21T06:08:45.242Z,-0.20
2023-01-21T06:11:11.890Z,-0.10
2023-01-21T06:13:38.592Z,-0.10
2023-01-21T06:16:05.848Z,-0.40
2023-01-21T06:18:32.551Z,-0.10
2023-01-21T06:21:00.280Z,-0.10
2023-01-21T06:23:27.172Z,-0.10
2023-01-21T06:25:53.884Z,-0.10
2023-01-21T06:28:20.550Z,0.00
2023-01-21T06:30:47.434Z,0.10
2023-01-21T06:33:14.177Z,0.20
2023-01-21T06:35:40.888Z,0.20
2023-01-21T06:38:07.585Z,0.20
2023-01-21T06:40:34.286Z,0.20
2023-01-21T06:43:01.060Z,0.20
2023-01-21T06:45:28.332Z,0.20
2023-01-21T06:47:55.001Z,0.20
2023-01-21T06:50:21.733Z,0.30
2023-01-21T06:52:48.986Z,0.30
2023-01-21T06:55:15.925Z,0.30
2023-01-21T06:57:43.070Z,0.40
2023-01-21T07:00:10.560Z,0.40
2023-01-21T07:02:37.270Z,0.30
2023-01-21T07:05:04.923Z,0.30
2023-01-21T07:07:31.660Z,0.40
2023-01-21T07:09:58.524Z,0.30
2023-01-21T07:12:25.259Z,0.40
2023-01-21T07:14:52.490Z,0.40
2023-01-21T07:17:19.305Z,0.40
2023-01-21T07:19:46.015Z,0.40
2023-01-21T07:22:12.687Z,0.30
2023-01-21T07:24:39.419Z,0.30
2023-01-21T07:27:06.685Z,0.20
2023-01-21T07:29:33.407Z,0.20
2023-01-21T07:32:00.138Z,0.20
2023-01-21T07:34:26.877Z,0.20
2023-01-21T07:36:53.646Z,0.20
2023-01-21T07:39:20.337Z,0.10
2023-01-21T07:41:47.048Z,0.00
2023-01-21T07:44:13.856Z,0.00
2023-01-21T07:46:40.595Z,0.00
2023-01-21T07:49:07.348Z,-0.10
2023-01-21T07:51:34.133Z,-0.10
2023-01-21T07:54:00.859Z,-0.10
2023-01-21T07:56:27.579Z,-0.10
2023-01-21T07:58:54.910Z,-0.10
2023-01-21T08:01:23.816Z,-0.10
2023-01-21T08:03:51.945Z,-0.20
2023-01-21T08:06:18.724Z,-0.20
2023-01-21T08:08:45.449Z,-0.20
2023-01-21T08:11:12.112Z,-0.30
2023-01-21T08:13:38.806Z,-0.30
2023-01-21T08:16:06.204Z,-0.30
2023-01-21T08:18:32.917Z,-0.30
2023-01-21T08:21:00.054Z,-0.20
2023-01-21T08:23:27.258Z,-0.20
2023-01-21T08:25:54.209Z,-0.20
2023-01-21T08:28:21.549Z,-0.10
2023-01-21T08:30:48.300Z,-0.20
2023-01-21T08:33:15.541Z,-0.10
2023-01-21T08:35:42.324Z,-0.10
2023-01-21T08:38:09.039Z,-0.10
2023-01-21T08:40:35.771Z,0.00
2023-01-21T08:43:03.306Z,0.00
2023-01-21T08:45:30.230Z,0.00
2023-01-21T08:47:57.143Z,0.00
2023-01-21T08:50:23.962Z,0.00
2023-01-21T08:52:52.234Z,0.00
2023-01-21T08:55:19.191Z,0.00
2023-01-21T08:57:45.973Z,0.10
2023-01-21T09:00:14.258Z,0.00
2023-01-21T09:02:41.309Z,0.10
2023-01-21T09:05:08.348Z,0.00
2023-01-21T09:07:35.064Z,0.10
2023-01-21T09:10:02.561Z,0.10
2023-01-21T09:12:29.350Z,0.10
2023-01-21T09:14:56.020Z,0.10
2023-01-21T09:17:22.975Z,0.20
2023-01-21T09:19:49.749Z,0.20
2023-01-21T09:22:16.815Z,0.30
2023-01-21T09:24:43.537Z,0.30
2023-01-21T09:27:10.483Z,0.40
2023-01-21T09:29:37.263Z,0.40
2023-01-21T09:32:05.262Z,0.40
2023-01-21T09:34:33.459Z,0.50
2023-01-21T09:37:03.094Z,0.50
2023-01-21T09:39:29.770Z,0.60
2023-01-21T09:41:56.636Z,0.70
2023-01-21T09:44:43.811Z,0.80
2023-01-21T09:47:23.789Z,0.90
2023-01-21T09:50:08.655Z,0.90
2023-01-21T09:52:48.763Z,1.00
2023-01-21T09:55:15.863Z,1.00
2023-01-21T09:58:11.894Z,1.10
2023-01-21T10:00:54.195Z,1.20
2023-01-21T10:03:39.645Z,1.30
2023-01-21T10:06:40.581Z,1.40
2023-01-21T10:09:29.925Z,1.50
2023-01-21T10:12:18.365Z,1.60
2023-01-21T10:15:20.472Z,1.60
2023-01-21T10:17:57.003Z,1.60
2023-01-21T10:20:32.098Z,1.70
2023-01-21T10:23:14.117Z,1.80
2023-01-21T10:25:40.835Z,1.80
2023-01-21T10:28:13.022Z,1.90
2023-01-21T10:30:42.553Z,2.00
2023-01-21T10:33:28.931Z,2.00
2023-01-21T10:36:13.811Z,2.10
2023-01-21T10:38:49.760Z,2.10
2023-01-21T10:41:30.811Z,2.20
2023-01-21T10:44:03.624Z,2.30
2023-01-21T10:47:02.326Z,2.30
2023-01-21T10:49:48.594Z,2.30
2023-01-21T10:52:26.150Z,2.40
2023-01-21T10:55:02.700Z,2.50
2023-01-21T10:57:40.836Z,2.50
2023-01-21T11:00:21.007Z,2.60
2023-01-21T11:02:50.499Z,2.60
2023-01-21T11:05:17.628Z,2.70
2023-01-21T11:07:44.506Z,2.70
2023-01-21T11:10:18.049Z,2.80
2023-01-21T11:12:44.782Z,2.90
2023-01-21T11:15:16.811Z,2.90
2023-01-21T11:17:45.269Z,3.00
2023-01-21T11:20:40.691Z,3.00
2023-01-21T11:23:22.948Z,3.20
2023-01-21T11:25:49.669Z,3.20
2023-01-21T11:28:24.647Z,3.20
2023-01-21T11:30:51.798Z,3.30
2023-01-21T11:33:26.522Z,3.30
2023-01-21T11:35:53.873Z,3.40
2023-01-21T11:38:23.834Z,3.40
2023-01-21T11:41:03.911Z,3.40
2023-01-21T11:43:35.620Z,3.50
2023-01-21T11:46:22.974Z,3.60
2023-01-21T11:48:49.829Z,3.60
2023-01-21T11:51:17.867Z,3.60
2023-01-21T11:53:46.615Z,3.70
2023-01-21T11:56:14.965Z,3.60
2023-01-21T11:58:41.809Z,3.70
2023-01-21T12:01:21.227Z,3.80
2023-01-21T12:03:55.496Z,3.80
2023-01-21T12:06:30.615Z,3.90
2023-01-21T12:09:00.656Z,3.90
2023-01-21T12:11:27.646Z,3.90
2023-01-21T12:14:11.530Z,4.00
2023-01-21T12:16:45.255Z,4.10
2023-01-21T12:19:23.531Z,4.20
2023-01-21T12:21:53.335Z,4.10
2023-01-21T12:24:27.008Z,4.10
2023-01-21T12:27:18.368Z,4.10
2023-01-21T12:30:19.105Z,4.10
2023-01-21T12:32:56.751Z,4.10
2023-01-21T12:35:31.053Z,4.20
2023-01-21T12:38:07.318Z,4.30
2023-01-21T12:40:36.975Z,4.30
2023-01-21T12:43:16.783Z,4.30
2023-01-21T12:45:59.800Z,4.40
2023-01-21T12:48:51.513Z,4.40
2023-01-21T12:51:26.320Z,4.40
2023-01-21T12:54:21.182Z,4.50
2023-01-21T12:57:20.705Z,4.50
2023-01-21T12:59:51.088Z,4.60
2023-01-21T13:02:20.910Z,4.60
2023-01-21T13:05:00.103Z,4.60
2023-01-21T13:07:56.839Z,4.70
2023-01-21T13:10:32.463Z,4.80
2023-01-21T13:13:20.993Z,4.80
2023-01-21T13:15:49.869Z,4.90
2023-01-21T13:18:18.784Z,4.90
2023-01-21T13:20:54.547Z,4.90
2023-01-21T13:23:21.304Z,4.90
2023-01-21T13:26:01.440Z,4.90
2023-01-21T13:28:37.648Z,4.90
2023-01-21T13:31:18.594Z,5.00
2023-01-21T13:34:03.493Z,5.00
2023-01-21T13:36:47.089Z,5.10
2023-01-21T13:39:17.659Z,5.10
2023-01-21T13:41:57.331Z,5.10
2023-01-21T13:44:49.395Z,5.00
2023-01-21T13:47:34.855Z,5.10
2023-01-21T13:50:23.512Z,5.10
2023-01-21T13:53:16.799Z,5.00
2023-01-21T13:55:52.613Z,5.10
2023-01-21T13:58:33.586Z,5.10
2023-01-21T14:01:24.404Z,5.10
2023-01-21T14:03:56.362Z,5.10
2023-01-21T14:06:24.596Z,5.10
2023-01-21T14:09:03.521Z,5.10
2023-01-21T14:11:50.096Z,5.10
2023-01-21T14:14:56.250Z,5.10
2023-01-21T14:17:27.233Z,5.20
2023-01-21T14:20:12.628Z,5.20
2023-01-21T14:22:50.277Z,5.20
2023-01-21T14:25:19.768Z,4.90
2023-01-21T14:28:02.316Z,5.20
2023-01-21T14:30:47.303Z,5.20
2023-01-21T14:33:18.193Z,5.20
2023-01-21T14:35:47.809Z,5.20
2023-01-21T14:38:48.343Z,5.20
2023-01-21T14:41:17.873Z,5.10
2023-01-21T14:43:46.409Z,5.20
2023-01-21T14:46:29.249Z,5.20
2023-01-21T14:49:07.731Z,5.20
2023-01-21T14:51:36.198Z,5.20
2023-01-21T14:54:25.301Z,5.30
2023-01-21T14:56:53.446Z,5.20
2023-01-21T14:59:34.614Z,5.30
2023-01-21T15:02:02.583Z,5.30
2023-01-21T15:04:35.227Z,5.30
2023-01-21T15:07:08.723Z,5.30
2023-01-21T15:09:37.342Z,5.30
2023-01-21T15:12:06.311Z,5.30
2023-01-21T15:14:35.330Z,5.30
2023-01-21T15:17:02.367Z,5.30
2023-01-21T15:19:33.652Z,5.20
2023-01-21T15:22:23.262Z,5.30
2023-01-21T15:25:15.923Z,5.30
2023-01-21T15:28:21.168Z,5.30
2023-01-21T15:31:00.946Z,5.20
2023-01-21T15:33:28.941Z,5.20
2023-01-21T15:35:55.631Z,5.20
2023-01-21T15:38:24.669Z,5.20
2023-01-21T15:40:58.032Z,5.20
2023-01-21T15:43:42.261Z,5.20
2023-01-21T15:46:22.700Z,5.40
2023-01-21T15:49:27.262Z,5.70
2023-01-21T15:51:59.955Z,5.70
2023-01-21T15:54:38.239Z,5.50
2023-01-21T15:57:32.541Z,5.40
2023-01-21T16:00:08.206Z,5.30
2023-01-21T16:02:43.402Z,5.20
2023-01-21T16:05:21.373Z,5.10
2023-01-21T16:08:03.019Z,5.10
2023-01-21T16:10:44.595Z,4.90
2023-01-21T16:13:29.289Z,4.90
2023-01-21T16:16:29.556Z,4.80
2023-01-21T16:19:06.428Z,4.70
2023-01-21T16:21:37.307Z,4.70
2023-01-21T16:24:13.123Z,4.60
2023-01-21T16:26:39.837Z,4.50
2023-01-21T16:29:13.606Z,4.50
2023-01-21T16:31:51.142Z,4.50
2023-01-21T16:34:36.289Z,4.40
2023-01-21T16:37:05.785Z,4.30
2023-01-21T16:39:32.529Z,4.30
2023-01-21T16:42:05.912Z,4.20
2023-01-21T16:44:33.124Z,4.10
2023-01-21T16:46:59.983Z,4.10
2023-01-21T16:49:26.734Z,4.10
2023-01-21T16:52:01.487Z,4.00
2023-01-21T16:54:32.283Z,4.00
2023-01-21T16:57:18.425Z,3.90
2023-01-21T16:59:48.301Z,3.90
2023-01-21T17:02:21.057Z,3.80
2023-01-21T17:04:47.920Z,3.80
2023-01-21T17:07:22.913Z,3.70
2023-01-21T17:09:59.442Z,3.70
2023-01-21T17:12:26.718Z,3.60
2023-01-21T17:15:00.015Z,3.50
2023-01-21T17:17:27.844Z,3.40
2023-01-21T17:19:54.539Z,3.40
2023-01-21T17:22:25.701Z,3.30
2023-01-21T17:24:58.911Z,3.30
2023-01-21T17:27:26.397Z,3.20
2023-01-21T17:29:53.389Z,3.10
2023-01-21T17:32:26.682Z,3.00
2023-01-21T17:35:04.064Z,3.00
2023-01-21T17:37:43.118Z,2.90
2023-01-21T17:40:28.497Z,2.80
2023-01-21T17:42:55.625Z,2.80
2023-01-21T17:45:33.430Z,2.70
2023-01-21T17:48:08.990Z,2.70
2023-01-21T17:50:36.702Z,2.70
2023-01-21T17:53:08.288Z,2.70
2023-01-21T17:55:36.548Z,2.60
2023-01-21T17:58:08.587Z,2.50
2023-01-21T18:00:42.639Z,2.40
2023-01-21T18:03:12.180Z,2.40
2023-01-21T18:05:46.467Z,2.30
2023-01-21T18:08:14.089Z,2.20
2023-01-21T18:10:41.036Z,2.20
2023-01-21T18:13:11.281Z,2.30
2023-01-21T18:15:38.218Z,2.10
2023-01-21T18:18:04.927Z,2.20
2023-01-21T18:20:31.729Z,2.00
2023-01-21T18:22:58.528Z,1.90
2023-01-21T18:25:26.068Z,1.80
2023-01-21T18:27:54.904Z,1.70
2023-01-21T18:30:21.731Z,1.80
2023-01-21T18:32:51.722Z,1.80
2023-01-21T18:35:23.083Z,1.70
2023-01-21T18:37:49.876Z,1.80
2023-01-21T18:40:22.678Z,1.70
2023-01-21T18:42:51.174Z,1.70
2023-01-21T18:45:27.488Z,1.60
2023-01-21T18:47:55.008Z,1.60
2023-01-21T18:50:24.114Z,1.50
2023-01-21T18:52:54.412Z,1.50
2023-01-21T18:55:21.950Z,1.40
2023-01-21T18:57:49.653Z,1.40
2023-01-21T19:00:34.676Z,1.30
2023-01-21T19:03:05.095Z,1.30
2023-01-21T19:05:36.075Z,1.20
2023-01-21T19:08:06.651Z,1.40
2023-01-21T19:10:33.390Z,1.20
2023-01-21T19:13:00.124Z,1.10
2023-01-21T19:15:27.769Z,1.00
2023-01-21T19:17:54.505Z,1.00
2023-01-21T19:20:23.175Z,0.90
2023-01-21T19:22:50.731Z,1.40
2023-01-21T19:25:20.888Z,0.80
2023-01-21T19:27:54.149Z,0.80
2023-01-21T19:30:27.419Z,0.90
2023-01-21T19:32:54.405Z,0.80
2023-01-21T19:35:27.854Z,0.90
2023-01-21T19:37:54.644Z,0.80
2023-01-21T19:40:26.100Z,0.90
2023-01-21T19:42:52.847Z,0.90
2023-01-21T19:45:19.729Z,0.80
2023-01-21T19:47:48.305Z,0.80
2023-01-21T19:50:19.953Z,0.70
2023-01-21T19:52:47.062Z,0.60
2023-01-21T19:55:18.821Z,0.60
2023-01-21T19:57:46.080Z,0.60
2023-01-21T20:00:16.952Z,0.60
2023-01-21T20:02:43.847Z,0.60
2023-01-21T20:05:10.577Z,0.60
2023-01-21T20:07:37.432Z,0.50
2023-01-21T20:10:17.348Z,0.50
2023-01-21T20:12:44.271Z,0.50
2023-01-21T20:15:12.930Z,0.50
2023-01-21T20:17:42.556Z,0.50
2023-01-21T20:20:23.554Z,0.40
2023-01-21T20:22:50.678Z,0.40
2023-01-21T20:25:21.844Z,0.50
2023-01-21T20:27:51.393Z,0.40
2023-01-21T20:30:23.275Z,0.50
2023-01-21T20:32:50.014Z,0.40
2023-01-21T20:35:17.100Z,0.40
2023-01-21T20:37:45.578Z,0.50
2023-01-21T20:40:20.411Z,0.40
2023-01-21T20:42:47.654Z,0.50
2023-01-21T20:45:15.664Z,0.30
2023-01-21T20:47:50.218Z,0.30
2023-01-21T20:50:25.847Z,0.20
2023-01-21T20:52:53.017Z,0.30
2023-01-21T20:55:21.661Z,0.20
2023-01-21T20:57:50.611Z,0.10
2023-01-21T21:00:18.977Z,0.10
2023-01-21T21:02:46.301Z,0.00
2023-01-21T21:05:13.990Z,0.00
2023-01-21T21:07:40.938Z,-0.10
2023-01-21T21:10:13.246Z,0.00
2023-01-21T21:12:40.182Z,0.00
2023-01-21T21:15:11.481Z,-0.10
2023-01-21T21:17:38.149Z,0.00
2023-01-21T21:20:05.345Z,0.00
2023-01-21T21:22:34.823Z,0.00
2023-01-21T21:25:01.745Z,0.00
2023-01-21T21:27:28.422Z,0.00
2023-01-21T21:29:59.274Z,-0.10
2023-01-21T21:32:28.207Z,-0.10
2023-01-21T21:34:55.152Z,-0.10
2023-01-21T21:37:22.085Z,-0.10
2023-01-21T21:39:51.988Z,-0.10
2023-01-21T21:42:37.084Z,-0.10
2023-01-21T21:45:03.920Z,-0.10
2023-01-21T21:47:49.399Z,-0.20
2023-01-21T21:50:17.196Z,-0.10
2023-01-21T21:52:43.961Z,-0.20
2023-01-21T21:55:17.092Z,-0.20
2023-01-21T21:57:44.091Z,-0.20
2023-01-21T22:00:12.189Z,-0.20
2023-01-21T22:02:38.999Z,-0.30
2023-01-21T22:05:05.979Z,-0.30
2023-01-21T22:07:32.771Z,-0.30
2023-01-21T22:10:00.141Z,-0.30
2023-01-21T22:12:26.995Z,-0.30
2023-01-21T22:14:53.748Z,-0.30
2023-01-21T22:17:20.474Z,-0.40
2023-01-21T22:19:47.581Z,-0.30
2023-01-21T22:22:14.352Z,-0.40
2023-01-21T22:24:41.141Z,-0.40
2023-01-21T22:27:08.327Z,-0.40
2023-01-21T22:29:35.123Z,-0.40
2023-01-21T22:32:05.538Z,-0.40
2023-01-21T22:34:32.861Z,-0.40
2023-01-21T22:36:59.602Z,-0.50
2023-01-21T22:39:26.527Z,-0.50
2023-01-21T22:42:00.304Z,-0.50
2023-01-21T22:44:27.209Z,-0.50
2023-01-21T22:46:53.899Z,-0.50
2023-01-21T22:49:21.455Z,-0.50
2023-01-21T22:51:48.116Z,-0.50
2023-01-21T22:54:14.896Z,-0.50
2023-01-21T22:56:52.100Z,-0.50
2023-01-21T22:59:19.848Z,-0.40
2023-01-21T23:01:48.706Z,-0.60
2023-01-21T23:04:18.422Z,-0.50
2023-01-21T23:06:45.269Z,-0.50
2023-01-21T23:09:15.547Z,-0.60
2023-01-21T23:11:42.412Z,-0.60
2023-01-21T23:14:09.891Z,-0.60
2023-01-21T23:16:36.614Z,-0.70
2023-01-21T23:19:03.868Z,-0.70
2023-01-21T23:21:30.631Z,-0.70
2023-01-21T23:23:57.494Z,-0.70
2023-01-21T23:26:24.363Z,-0.70
2023-01-21T23:28:55.155Z,-0.70
2023-01-21T23:31:22.169Z,-0.80
2023-01-21T23:33:49.848Z,-0.80
2023-01-21T23:36:19.437Z,-0.80
2023-01-21T23:38:46.162Z,-0.80
2023-01-21T23:41:14.621Z,-0.80
2023-01-21T23:43:41.606Z,-0.80
2023-01-21T23:46:10.748Z,-0.80
2023-01-21T23:48:37.564Z,-0.80
2023-01-21T23:51:05.257Z,-0.80
2023-01-21T23:53:32.502Z,-0.80
2023-01-21T23:56:08.497Z,-0.80
2023-01-21T23:58:35.236Z,-0.80
